sensor_id;sensor_type;location;lat;lon;timestamp;pressure;altitude;pressure_sealevel;temperature;humidity
55460;BME280;41326;45.302;-122.946;2022-12-07T00:03:26;101588.89;;;17.42;49.02
55460;BME280;41326;45.302;-122.946;2022-12-07T00:05:57;101586.76;;;17.37;49.16
55460;BME280;41326;45.302;-122.946;2022-12-07T00:08:26;101587.92;;;17.33;49.19
55460;BME280;41326;45.302;-122.946;2022-12-07T00:11:00;101587.90;;;17.29;49.29
55460;BME280;41326;45.302;-122.946;2022-12-07T00:13:27;101585.43;;;17.27;49.35
55460;BME280;41326;45.302;-122.946;2022-12-07T00:15:59;101585.26;;;17.26;49.41
55460;BME280;41326;45.302;-122.946;2022-12-07T00:18:27;101587.04;;;17.22;49.53
55460;BME280;41326;45.302;-122.946;2022-12-07T00:21:01;101590.13;;;17.20;49.59
55460;BME280;41326;45.302;-122.946;2022-12-07T00:23:28;101593.77;;;17.16;49.74
55460;BME280;41326;45.302;-122.946;2022-12-07T00:26:03;101597.90;;;17.11;49.87
55460;BME280;41326;45.302;-122.946;2022-12-07T00:28:28;101596.50;;;17.07;49.97
55460;BME280;41326;45.302;-122.946;2022-12-07T00:31:05;101595.44;;;17.05;50.04
55460;BME280;41326;45.302;-122.946;2022-12-07T00:33:29;101594.72;;;17.04;50.19
55460;BME280;41326;45.302;-122.946;2022-12-07T00:36:02;101594.41;;;17.01;50.27
55460;BME280;41326;45.302;-122.946;2022-12-07T00:38:30;101599.15;;;17.09;50.07
55460;BME280;41326;45.302;-122.946;2022-12-07T00:41:01;101602.63;;;17.25;49.78
55460;BME280;41326;45.302;-122.946;2022-12-07T00:43:31;101606.63;;;17.46;49.29
55460;BME280;41326;45.302;-122.946;2022-12-07T00:46:02;101610.62;;;17.65;48.92
55460;BME280;41326;45.302;-122.946;2022-12-07T00:48:31;101613.53;;;17.80;48.55
55460;BME280;41326;45.302;-122.946;2022-12-07T00:51:02;101611.14;;;17.84;48.39
55460;BME280;41326;45.302;-122.946;2022-12-07T00:53:34;101608.58;;;17.81;48.46
55460;BME280;41326;45.302;-122.946;2022-12-07T00:56:04;101605.35;;;17.84;48.37
55460;BME280;41326;45.302;-122.946;2022-12-07T00:58:33;101599.17;;;17.95;48.18
55460;BME280;41326;45.302;-122.946;2022-12-07T01:01:05;101602.52;;;18.11;47.94
55460;BME280;41326;45.302;-122.946;2022-12-07T01:03:34;101604.50;;;18.23;47.71
55460;BME280;41326;45.302;-122.946;2022-12-07T01:06:04;101604.99;;;18.42;47.33
55460;BME280;41326;45.302;-122.946;2022-12-07T01:08:35;101606.71;;;18.51;47.13
55460;BME280;41326;45.302;-122.946;2022-12-07T01:11:07;101607.98;;;18.52;47.07
55460;BME280;41326;45.302;-122.946;2022-12-07T01:13:35;101615.11;;;18.38;47.48
55460;BME280;41326;45.302;-122.946;2022-12-07T01:16:07;101617.08;;;18.45;47.34
55460;BME280;41326;45.302;-122.946;2022-12-07T01:18:37;101615.66;;;18.54;47.27
55460;BME280;41326;45.302;-122.946;2022-12-07T01:21:07;101611.12;;;18.67;47.20
55460;BME280;41326;45.302;-122.946;2022-12-07T01:23:37;101612.14;;;18.72;47.16
55460;BME280;41326;45.302;-122.946;2022-12-07T01:26:08;101610.23;;;18.61;47.50
55460;BME280;41326;45.302;-122.946;2022-12-07T01:28:37;101611.13;;;18.57;47.76
55460;BME280;41326;45.302;-122.946;2022-12-07T01:31:08;101612.42;;;18.53;48.16
55460;BME280;41326;45.302;-122.946;2022-12-07T01:33:39;101614.20;;;18.63;48.34
55460;BME280;41326;45.302;-122.946;2022-12-07T01:36:08;101612.05;;;18.77;47.76
55460;BME280;41326;45.302;-122.946;2022-12-07T01:38:38;101614.62;;;18.77;48.38
55460;BME280;41326;45.302;-122.946;2022-12-07T01:41:08;101616.54;;;18.68;48.78
55460;BME280;41326;45.302;-122.946;2022-12-07T01:44:06;101620.43;;;18.63;48.86
55460;BME280;41326;45.302;-122.946;2022-12-07T01:46:09;101622.37;;;18.50;49.22
55460;BME280;41326;45.302;-122.946;2022-12-07T01:48:40;101618.57;;;18.51;49.06
55460;BME280;41326;45.302;-122.946;2022-12-07T01:51:11;101619.42;;;18.64;48.83
55460;BME280;41326;45.302;-122.946;2022-12-07T01:53:41;101622.77;;;18.66;48.81
55460;BME280;41326;45.302;-122.946;2022-12-07T01:56:14;101623.02;;;18.67;48.81
55460;BME280;41326;45.302;-122.946;2022-12-07T01:58:40;101625.51;;;18.58;49.10
55460;BME280;41326;45.302;-122.946;2022-12-07T02:01:10;101627.52;;;18.53;49.32
55460;BME280;41326;45.302;-122.946;2022-12-07T02:03:43;101625.90;;;18.46;49.44
55460;BME280;41326;45.302;-122.946;2022-12-07T02:06:12;101622.93;;;18.43;49.59
55460;BME280;41326;45.302;-122.946;2022-12-07T02:08:41;101620.77;;;18.40;49.80
55460;BME280;41326;45.302;-122.946;2022-12-07T02:11:12;101622.50;;;18.40;49.93
55460;BME280;41326;45.302;-122.946;2022-12-07T02:13:43;101622.38;;;18.31;50.49
55460;BME280;41326;45.302;-122.946;2022-12-07T02:16:23;101624.47;;;18.28;50.88
55460;BME280;41326;45.302;-122.946;2022-12-07T02:18:55;101621.59;;;18.26;50.91
55460;BME280;41326;45.302;-122.946;2022-12-07T02:21:18;101620.21;;;18.36;50.83
55460;BME280;41326;45.302;-122.946;2022-12-07T02:23:52;101618.63;;;18.46;51.43
55460;BME280;41326;45.302;-122.946;2022-12-07T02:26:25;101619.15;;;18.53;51.91
55460;BME280;41326;45.302;-122.946;2022-12-07T02:31:18;101622.04;;;18.61;51.89
55460;BME280;41326;45.302;-122.946;2022-12-07T02:33:49;101626.21;;;18.58;52.07
55460;BME280;41326;45.302;-122.946;2022-12-07T02:36:17;101624.75;;;18.55;52.11
55460;BME280;41326;45.302;-122.946;2022-12-07T02:38:51;101623.88;;;18.52;52.30
55460;BME280;41326;45.302;-122.946;2022-12-07T02:41:20;101622.94;;;18.47;52.86
55460;BME280;41326;45.302;-122.946;2022-12-07T02:43:49;101624.26;;;18.47;52.84
55460;BME280;41326;45.302;-122.946;2022-12-07T02:46:21;101625.44;;;18.45;52.79
55460;BME280;41326;45.302;-122.946;2022-12-07T02:48:47;101627.19;;;18.37;52.65
55460;BME280;41326;45.302;-122.946;2022-12-07T02:51:17;101626.93;;;18.37;52.51
55460;BME280;41326;45.302;-122.946;2022-12-07T02:53:48;101631.74;;;18.36;52.37
55460;BME280;41326;45.302;-122.946;2022-12-07T02:56:24;101633.85;;;18.34;52.21
55460;BME280;41326;45.302;-122.946;2022-12-07T02:58:57;101632.60;;;18.36;51.71
55460;BME280;41326;45.302;-122.946;2022-12-07T03:01:25;101634.03;;;18.51;51.28
55460;BME280;41326;45.302;-122.946;2022-12-07T03:03:54;101634.99;;;18.58;50.97
55460;BME280;41326;45.302;-122.946;2022-12-07T03:06:23;101634.85;;;18.60;50.86
55460;BME280;41326;45.302;-122.946;2022-12-07T03:08:54;101634.81;;;18.61;50.58
55460;BME280;41326;45.302;-122.946;2022-12-07T03:11:23;101633.71;;;18.59;50.51
55460;BME280;41326;45.302;-122.946;2022-12-07T03:13:55;101632.94;;;18.54;50.68
55460;BME280;41326;45.302;-122.946;2022-12-07T03:16:22;101631.02;;;18.51;50.68
55460;BME280;41326;45.302;-122.946;2022-12-07T03:18:53;101634.10;;;18.50;50.66
55460;BME280;41326;45.302;-122.946;2022-12-07T03:21:23;101634.08;;;18.44;50.79
55460;BME280;41326;45.302;-122.946;2022-12-07T03:23:55;101633.61;;;18.40;50.84
55460;BME280;41326;45.302;-122.946;2022-12-07T03:26:24;101636.13;;;18.34;50.91
55460;BME280;41326;45.302;-122.946;2022-12-07T03:28:56;101635.44;;;18.29;50.81
55460;BME280;41326;45.302;-122.946;2022-12-07T03:31:25;101640.59;;;18.30;50.76
55460;BME280;41326;45.302;-122.946;2022-12-07T03:33:59;101639.88;;;18.44;50.37
55460;BME280;41326;45.302;-122.946;2022-12-07T03:36:28;101642.99;;;18.52;50.19
55460;BME280;41326;45.302;-122.946;2022-12-07T03:38:57;101644.01;;;18.58;49.97
55460;BME280;41326;45.302;-122.946;2022-12-07T03:41:28;101646.97;;;18.60;49.85
55460;BME280;41326;45.302;-122.946;2022-12-07T03:43:55;101648.83;;;18.54;49.99
55460;BME280;41326;45.302;-122.946;2022-12-07T03:46:31;101651.12;;;18.55;49.85
55460;BME280;41326;45.302;-122.946;2022-12-07T03:49:02;101656.32;;;18.46;49.98
55460;BME280;41326;45.302;-122.946;2022-12-07T03:51:28;101658.22;;;18.42;50.01
55460;BME280;41326;45.302;-122.946;2022-12-07T03:54:02;101657.76;;;18.39;50.11
55460;BME280;41326;45.302;-122.946;2022-12-07T03:56:27;101659.23;;;18.36;50.19
55460;BME280;41326;45.302;-122.946;2022-12-07T03:58:57;101659.15;;;18.31;50.26
55460;BME280;41326;45.302;-122.946;2022-12-07T04:02:35;101664.10;;;18.39;49.93
55460;BME280;41326;45.302;-122.946;2022-12-07T04:05:06;101667.06;;;18.54;49.57
55460;BME280;41326;45.302;-122.946;2022-12-07T04:07:37;101666.76;;;18.55;49.53
55460;BME280;41326;45.302;-122.946;2022-12-07T04:10:07;101667.56;;;18.62;49.22
55460;BME280;41326;45.302;-122.946;2022-12-07T04:12:36;101665.91;;;18.60;49.25
55460;BME280;41326;45.302;-122.946;2022-12-07T04:15:08;101663.19;;;18.54;49.44
55460;BME280;41326;45.302;-122.946;2022-12-07T04:17:37;101664.13;;;18.50;49.52
55460;BME280;41326;45.302;-122.946;2022-12-07T04:20:09;101666.15;;;18.48;49.52
55460;BME280;41326;45.302;-122.946;2022-12-07T04:22:39;101668.00;;;18.44;49.61
55460;BME280;41326;45.302;-122.946;2022-12-07T04:25:09;101669.37;;;18.39;49.63
55460;BME280;41326;45.302;-122.946;2022-12-07T04:27:39;101669.57;;;18.38;49.62
55460;BME280;41326;45.302;-122.946;2022-12-07T04:30:10;101670.48;;;18.52;49.37
55460;BME280;41326;45.302;-122.946;2022-12-07T04:32:40;101671.00;;;18.60;49.20
55460;BME280;41326;45.302;-122.946;2022-12-07T04:35:10;101671.82;;;18.63;49.12
55460;BME280;41326;45.302;-122.946;2022-12-07T04:37:40;101671.84;;;18.65;49.03
55460;BME280;41326;45.302;-122.946;2022-12-07T04:40:12;101673.77;;;18.60;49.25
55460;BME280;41326;45.302;-122.946;2022-12-07T04:42:41;101672.91;;;18.55;49.47
55460;BME280;41326;45.302;-122.946;2022-12-07T04:45:12;101675.95;;;18.54;49.45
55460;BME280;41326;45.302;-122.946;2022-12-07T04:47:42;101677.13;;;18.52;49.41
55460;BME280;41326;45.302;-122.946;2022-12-07T04:50:13;101675.06;;;18.41;49.81
55460;BME280;41326;45.302;-122.946;2022-12-07T04:52:43;101677.61;;;18.40;49.82
55460;BME280;41326;45.302;-122.946;2022-12-07T04:55:13;101680.42;;;18.39;49.93
55460;BME280;41326;45.302;-122.946;2022-12-07T04:57:43;101688.75;;;18.38;49.96
55460;BME280;41326;45.302;-122.946;2022-12-07T05:00:14;101692.67;;;18.34;50.08
55460;BME280;41326;45.302;-122.946;2022-12-07T05:02:43;101694.40;;;18.31;50.16
55460;BME280;41326;45.302;-122.946;2022-12-07T05:05:14;101693.38;;;18.24;50.45
55460;BME280;41326;45.302;-122.946;2022-12-07T05:07:45;101690.71;;;18.19;50.52
55460;BME280;41326;45.302;-122.946;2022-12-07T05:10:15;101690.63;;;18.17;50.60
55460;BME280;41326;45.302;-122.946;2022-12-07T05:12:45;101689.12;;;18.16;50.80
55460;BME280;41326;45.302;-122.946;2022-12-07T05:15:15;101687.69;;;18.14;50.85
55460;BME280;41326;45.302;-122.946;2022-12-07T05:17:46;101686.29;;;18.12;50.93
55460;BME280;41326;45.302;-122.946;2022-12-07T05:20:16;101684.13;;;18.11;50.91
55460;BME280;41326;45.302;-122.946;2022-12-07T05:22:46;101684.65;;;18.09;50.99
55460;BME280;41326;45.302;-122.946;2022-12-07T05:25:16;101680.09;;;18.05;51.08
55460;BME280;41326;45.302;-122.946;2022-12-07T05:27:46;101679.78;;;18.03;50.96
55460;BME280;41326;45.302;-122.946;2022-12-07T05:30:17;101682.14;;;18.01;50.91
55460;BME280;41326;45.302;-122.946;2022-12-07T05:32:47;101678.73;;;17.96;51.25
55460;BME280;41326;45.302;-122.946;2022-12-07T05:35:18;101678.63;;;17.95;51.32
55460;BME280;41326;45.302;-122.946;2022-12-07T05:37:48;101682.36;;;17.94;51.29
55460;BME280;41326;45.302;-122.946;2022-12-07T05:40:19;101678.64;;;17.96;51.16
55460;BME280;41326;45.302;-122.946;2022-12-07T05:42:49;101681.30;;;17.97;51.10
55460;BME280;41326;45.302;-122.946;2022-12-07T05:45:19;101681.07;;;17.91;51.27
55460;BME280;41326;45.302;-122.946;2022-12-07T05:47:49;101682.15;;;17.87;51.16
55460;BME280;41326;45.302;-122.946;2022-12-07T05:50:20;101684.61;;;17.84;51.22
55460;BME280;41326;45.302;-122.946;2022-12-07T05:52:50;101685.58;;;17.83;51.24
55460;BME280;41326;45.302;-122.946;2022-12-07T05:55:21;101681.67;;;17.81;51.30
55460;BME280;41326;45.302;-122.946;2022-12-07T05:57:52;101681.79;;;17.78;51.39
55460;BME280;41326;45.302;-122.946;2022-12-07T06:00:21;101679.07;;;17.80;51.26
55460;BME280;41326;45.302;-122.946;2022-12-07T06:02:52;101677.29;;;17.75;51.30
55460;BME280;41326;45.302;-122.946;2022-12-07T06:05:22;101678.11;;;17.72;51.32
55460;BME280;41326;45.302;-122.946;2022-12-07T06:07:54;101682.52;;;17.65;51.40
55460;BME280;41326;45.302;-122.946;2022-12-07T06:10:23;101683.95;;;17.64;51.23
55460;BME280;41326;45.302;-122.946;2022-12-07T06:12:53;101692.03;;;17.63;51.26
55460;BME280;41326;45.302;-122.946;2022-12-07T06:15:24;101694.81;;;17.61;51.30
55460;BME280;41326;45.302;-122.946;2022-12-07T06:17:53;101697.94;;;17.62;51.12
55460;BME280;41326;45.302;-122.946;2022-12-07T06:20:24;101699.84;;;17.61;51.17
55460;BME280;41326;45.302;-122.946;2022-12-07T06:22:54;101698.68;;;17.58;51.22
55460;BME280;41326;45.302;-122.946;2022-12-07T06:25:25;101702.08;;;17.58;51.15
55460;BME280;41326;45.302;-122.946;2022-12-07T06:27:55;101702.81;;;17.51;51.17
55460;BME280;41326;45.302;-122.946;2022-12-07T06:30:25;101707.87;;;17.52;50.99
55460;BME280;41326;45.302;-122.946;2022-12-07T06:32:55;101705.73;;;17.48;51.22
55460;BME280;41326;45.302;-122.946;2022-12-07T06:35:25;101706.56;;;17.49;51.14
55460;BME280;41326;45.302;-122.946;2022-12-07T06:37:56;101705.41;;;17.50;51.03
55460;BME280;41326;45.302;-122.946;2022-12-07T06:40:26;101703.41;;;17.48;51.08
55460;BME280;41326;45.302;-122.946;2022-12-07T06:42:57;101701.97;;;17.45;51.04
55460;BME280;41326;45.302;-122.946;2022-12-07T06:45:27;101699.94;;;17.43;51.06
55460;BME280;41326;45.302;-122.946;2022-12-07T06:47:57;101701.22;;;17.36;51.12
55460;BME280;41326;45.302;-122.946;2022-12-07T06:50:28;101702.05;;;17.35;51.24
55460;BME280;41326;45.302;-122.946;2022-12-07T06:52:58;101703.58;;;17.35;51.27
55460;BME280;41326;45.302;-122.946;2022-12-07T06:55:29;101706.56;;;17.32;51.36
55460;BME280;41326;45.302;-122.946;2022-12-07T06:57:59;101702.75;;;17.30;51.39
55460;BME280;41326;45.302;-122.946;2022-12-07T07:00:30;101701.04;;;17.30;51.38
55460;BME280;41326;45.302;-122.946;2022-12-07T07:03:00;101700.41;;;17.28;51.40
55460;BME280;41326;45.302;-122.946;2022-12-07T07:05:30;101700.56;;;17.25;51.49
55460;BME280;41326;45.302;-122.946;2022-12-07T07:08:01;101702.80;;;17.21;51.50
55460;BME280;41326;45.302;-122.946;2022-12-07T07:10:31;101706.69;;;17.14;51.68
55460;BME280;41326;45.302;-122.946;2022-12-07T07:13:02;101705.97;;;17.16;51.64
55460;BME280;41326;45.302;-122.946;2022-12-07T07:15:32;101710.83;;;17.16;51.68
55460;BME280;41326;45.302;-122.946;2022-12-07T07:18:02;101710.53;;;17.15;51.65
55460;BME280;41326;45.302;-122.946;2022-12-07T07:20:33;101710.13;;;17.11;51.80
55460;BME280;41326;45.302;-122.946;2022-12-07T07:23:03;101708.39;;;17.10;51.74
55460;BME280;41326;45.302;-122.946;2022-12-07T07:25:33;101709.73;;;17.05;51.92
55460;BME280;41326;45.302;-122.946;2022-12-07T07:28:04;101708.68;;;17.00;51.92
55460;BME280;41326;45.302;-122.946;2022-12-07T07:30:34;101707.83;;;16.98;51.89
55460;BME280;41326;45.302;-122.946;2022-12-07T07:33:05;101707.88;;;16.96;52.02
55460;BME280;41326;45.302;-122.946;2022-12-07T07:35:36;101706.25;;;16.95;52.08
55460;BME280;41326;45.302;-122.946;2022-12-07T07:38:06;101708.12;;;16.98;51.99
55460;BME280;41326;45.302;-122.946;2022-12-07T07:40:36;101709.72;;;16.97;51.99
55460;BME280;41326;45.302;-122.946;2022-12-07T07:43:07;101709.75;;;16.95;51.98
55460;BME280;41326;45.302;-122.946;2022-12-07T07:45:36;101710.55;;;16.93;52.03
55460;BME280;41326;45.302;-122.946;2022-12-07T07:48:06;101711.61;;;16.87;52.14
55460;BME280;41326;45.302;-122.946;2022-12-07T07:50:36;101715.67;;;16.83;52.33
55460;BME280;41326;45.302;-122.946;2022-12-07T07:53:07;101713.28;;;16.84;52.38
55460;BME280;41326;45.302;-122.946;2022-12-07T07:55:37;101715.03;;;16.84;52.45
55460;BME280;41326;45.302;-122.946;2022-12-07T07:58:07;101719.12;;;16.86;52.32
55460;BME280;41326;45.302;-122.946;2022-12-07T08:00:37;101715.57;;;16.81;52.48
55460;BME280;41326;45.302;-122.946;2022-12-07T08:03:08;101713.58;;;16.82;52.41
55460;BME280;41326;45.302;-122.946;2022-12-07T08:05:39;101713.72;;;16.83;52.33
55460;BME280;41326;45.302;-122.946;2022-12-07T08:08:10;101711.58;;;16.75;52.50
55460;BME280;41326;45.302;-122.946;2022-12-07T08:10:39;101703.97;;;16.72;52.58
55460;BME280;41326;45.302;-122.946;2022-12-07T08:13:10;101698.05;;;16.74;52.53
55460;BME280;41326;45.302;-122.946;2022-12-07T08:15:42;101697.12;;;16.72;52.56
55460;BME280;41326;45.302;-122.946;2022-12-07T08:18:11;101695.14;;;16.74;52.52
55460;BME280;41326;45.302;-122.946;2022-12-07T08:20:42;101694.26;;;16.77;52.40
55460;BME280;41326;45.302;-122.946;2022-12-07T08:23:12;101693.73;;;16.72;52.50
55460;BME280;41326;45.302;-122.946;2022-12-07T08:25:42;101687.55;;;16.73;52.40
55460;BME280;41326;45.302;-122.946;2022-12-07T08:28:13;101683.06;;;16.64;52.57
55460;BME280;41326;45.302;-122.946;2022-12-07T08:30:42;101680.17;;;16.61;52.68
55460;BME280;41326;45.302;-122.946;2022-12-07T08:33:13;101678.31;;;16.64;52.64
55460;BME280;41326;45.302;-122.946;2022-12-07T08:35:44;101676.75;;;16.62;52.64
55460;BME280;41326;45.302;-122.946;2022-12-07T08:38:14;101676.27;;;16.63;52.58
55460;BME280;41326;45.302;-122.946;2022-12-07T08:40:44;101681.61;;;16.62;52.58
55460;BME280;41326;45.302;-122.946;2022-12-07T08:43:15;101683.07;;;16.63;52.56
55460;BME280;41326;45.302;-122.946;2022-12-07T08:45:46;101684.28;;;16.59;52.61
55460;BME280;41326;45.302;-122.946;2022-12-07T08:48:17;101687.85;;;16.55;52.65
55460;BME280;41326;45.302;-122.946;2022-12-07T08:50:45;101686.64;;;16.50;52.80
55460;BME280;41326;45.302;-122.946;2022-12-07T08:53:16;101689.09;;;16.52;52.77
55460;BME280;41326;45.302;-122.946;2022-12-07T08:55:46;101690.60;;;16.53;52.69
55460;BME280;41326;45.302;-122.946;2022-12-07T08:58:16;101692.70;;;16.53;52.65
55460;BME280;41326;45.302;-122.946;2022-12-07T09:00:47;101689.81;;;16.52;52.64
55460;BME280;41326;45.302;-122.946;2022-12-07T09:03:17;101689.91;;;16.50;52.62
55460;BME280;41326;45.302;-122.946;2022-12-07T09:05:47;101685.86;;;16.47;52.76
55460;BME280;41326;45.302;-122.946;2022-12-07T09:08:18;101684.40;;;16.44;52.72
55460;BME280;41326;45.302;-122.946;2022-12-07T09:10:47;101680.79;;;16.37;52.95
55460;BME280;41326;45.302;-122.946;2022-12-07T09:13:18;101677.12;;;16.38;52.89
55460;BME280;41326;45.302;-122.946;2022-12-07T09:15:49;101675.51;;;16.39;52.86
55460;BME280;41326;45.302;-122.946;2022-12-07T09:18:19;101678.17;;;16.38;52.80
55460;BME280;41326;45.302;-122.946;2022-12-07T09:20:49;101681.86;;;16.39;52.78
55460;BME280;41326;45.302;-122.946;2022-12-07T09:23:20;101682.76;;;16.38;52.75
55460;BME280;41326;45.302;-122.946;2022-12-07T09:25:50;101685.98;;;16.38;52.74
55460;BME280;41326;45.302;-122.946;2022-12-07T09:28:20;101687.56;;;16.33;52.79
55460;BME280;41326;45.302;-122.946;2022-12-07T09:30:52;101686.51;;;16.28;53.12
55460;BME280;41326;45.302;-122.946;2022-12-07T09:33:21;101686.90;;;16.29;52.98
55460;BME280;41326;45.302;-122.946;2022-12-07T09:35:52;101682.77;;;16.28;52.99
55460;BME280;41326;45.302;-122.946;2022-12-07T09:38:23;101683.42;;;16.27;53.05
55460;BME280;41326;45.302;-122.946;2022-12-07T09:40:52;101685.86;;;16.28;53.12
55460;BME280;41326;45.302;-122.946;2022-12-07T09:43:24;101685.21;;;16.28;53.14
55460;BME280;41326;45.302;-122.946;2022-12-07T09:45:56;101682.64;;;16.28;53.07
55460;BME280;41326;45.302;-122.946;2022-12-07T09:48:25;101681.28;;;16.20;53.20
55460;BME280;41326;45.302;-122.946;2022-12-07T09:50:55;101680.07;;;16.17;53.36
55460;BME280;41326;45.302;-122.946;2022-12-07T09:53:30;101684.18;;;16.17;53.28
55460;BME280;41326;45.302;-122.946;2022-12-07T09:55:55;101685.33;;;16.17;53.23
55460;BME280;41326;45.302;-122.946;2022-12-07T09:58:28;101685.06;;;16.19;53.18
55460;BME280;41326;45.302;-122.946;2022-12-07T10:00:57;101684.53;;;16.20;53.14
55460;BME280;41326;45.302;-122.946;2022-12-07T10:03:25;101688.95;;;16.18;53.17
55460;BME280;41326;45.302;-122.946;2022-12-07T10:05:57;101689.95;;;16.17;53.21
55460;BME280;41326;45.302;-122.946;2022-12-07T10:08:26;101685.27;;;16.11;53.38
55460;BME280;41326;45.302;-122.946;2022-12-07T10:10:57;101682.22;;;16.08;53.55
55460;BME280;41326;45.302;-122.946;2022-12-07T10:15:57;101682.55;;;16.11;53.28
55460;BME280;41326;45.302;-122.946;2022-12-07T10:18:33;101686.54;;;16.10;53.26
55460;BME280;41326;45.302;-122.946;2022-12-07T10:21:03;101686.41;;;16.08;53.25
55460;BME280;41326;45.302;-122.946;2022-12-07T10:23:27;101689.13;;;16.05;53.31
55460;BME280;41326;45.302;-122.946;2022-12-07T10:25:57;101692.81;;;16.05;53.29
55460;BME280;41326;45.302;-122.946;2022-12-07T10:28:34;101692.15;;;16.00;53.39
55460;BME280;41326;45.302;-122.946;2022-12-07T10:31:02;101690.93;;;15.97;53.58
55460;BME280;41326;45.302;-122.946;2022-12-07T10:33:34;101694.45;;;16.00;53.57
55460;BME280;41326;45.302;-122.946;2022-12-07T10:35:59;101689.68;;;16.02;53.58
55460;BME280;41326;45.302;-122.946;2022-12-07T10:38:30;101689.12;;;16.00;53.61
55460;BME280;41326;45.302;-122.946;2022-12-07T10:41:04;101686.25;;;16.01;53.67
55460;BME280;41326;45.302;-122.946;2022-12-07T10:43:29;101689.27;;;16.00;53.69
55460;BME280;41326;45.302;-122.946;2022-12-07T10:46:13;101688.80;;;15.94;53.79
55460;BME280;41326;45.302;-122.946;2022-12-07T10:48:35;101688.95;;;15.89;53.82
55460;BME280;41326;45.302;-122.946;2022-12-07T10:51:08;101685.10;;;15.86;53.98
55460;BME280;41326;45.302;-122.946;2022-12-07T10:56:13;101682.95;;;15.88;53.97
55460;BME280;41326;45.302;-122.946;2022-12-07T10:58:41;101677.96;;;15.91;53.78
55460;BME280;41326;45.302;-122.946;2022-12-07T11:01:09;101675.77;;;15.92;53.79
55460;BME280;41326;45.302;-122.946;2022-12-07T11:03:42;101670.58;;;15.88;53.85
55460;BME280;41326;45.302;-122.946;2022-12-07T11:06:12;101667.45;;;15.88;53.77
55460;BME280;41326;45.302;-122.946;2022-12-07T11:08:44;101665.87;;;15.83;53.80
55460;BME280;41326;45.302;-122.946;2022-12-07T11:11:09;101662.77;;;15.80;53.83
55460;BME280;41326;45.302;-122.946;2022-12-07T11:13:39;101661.92;;;15.84;53.65
55460;BME280;41326;45.302;-122.946;2022-12-07T11:16:16;101656.39;;;15.82;53.66
55460;BME280;41326;45.302;-122.946;2022-12-07T11:18:41;101656.33;;;15.85;53.49
55460;BME280;41326;45.302;-122.946;2022-12-07T11:21:10;101653.77;;;15.85;53.40
55460;BME280;41326;45.302;-122.946;2022-12-07T11:23:41;101646.51;;;15.84;53.42
55460;BME280;41326;45.302;-122.946;2022-12-07T11:26:10;101643.59;;;15.80;53.46
55460;BME280;41326;45.302;-122.946;2022-12-07T11:28:50;101639.60;;;15.77;53.54
55460;BME280;41326;45.302;-122.946;2022-12-07T11:31:12;101633.66;;;15.73;53.57
55460;BME280;41326;45.302;-122.946;2022-12-07T11:33:41;101634.81;;;15.74;53.57
55460;BME280;41326;45.302;-122.946;2022-12-07T11:36:13;101636.46;;;15.76;53.47
55460;BME280;41326;45.302;-122.946;2022-12-07T11:38:43;101637.33;;;15.74;53.46
55460;BME280;41326;45.302;-122.946;2022-12-07T11:41:08;101638.54;;;15.73;53.53
55460;BME280;41326;45.302;-122.946;2022-12-07T11:43:41;101631.61;;;15.70;53.81
55460;BME280;41326;45.302;-122.946;2022-12-07T11:46:11;101629.18;;;15.72;53.79
55460;BME280;41326;45.302;-122.946;2022-12-07T11:48:40;101629.66;;;15.67;53.90
55460;BME280;41326;45.302;-122.946;2022-12-07T11:51:09;101631.98;;;15.67;54.00
55460;BME280;41326;45.302;-122.946;2022-12-07T11:53:40;101633.92;;;15.68;53.94
55460;BME280;41326;45.302;-122.946;2022-12-07T11:56:12;101632.65;;;15.66;54.09
55460;BME280;41326;45.302;-122.946;2022-12-07T11:58:48;101629.23;;;15.67;53.97
55460;BME280;41326;45.302;-122.946;2022-12-07T12:01:18;101626.36;;;15.68;53.96
55460;BME280;41326;45.302;-122.946;2022-12-07T12:03:43;101623.35;;;15.65;53.97
55460;BME280;41326;45.302;-122.946;2022-12-07T12:06:09;101623.35;;;15.63;54.05
55460;BME280;41326;45.302;-122.946;2022-12-07T12:08:43;101621.19;;;15.58;54.19
55460;BME280;41326;45.302;-122.946;2022-12-07T12:11:19;101619.70;;;15.59;54.25
55460;BME280;41326;45.302;-122.946;2022-12-07T12:13:50;101621.01;;;15.60;54.14
55460;BME280;41326;45.302;-122.946;2022-12-07T12:16:26;101623.14;;;15.59;54.09
55460;BME280;41326;45.302;-122.946;2022-12-07T12:18:50;101622.49;;;15.59;54.08
55460;BME280;41326;45.302;-122.946;2022-12-07T12:21:14;101623.96;;;15.58;54.10
55460;BME280;41326;45.302;-122.946;2022-12-07T12:23:47;101628.11;;;15.55;54.18
55460;BME280;41326;45.302;-122.946;2022-12-07T12:26:16;101627.98;;;15.53;54.19
55460;BME280;41326;45.302;-122.946;2022-12-07T12:28:50;101627.48;;;15.47;54.33
55460;BME280;41326;45.302;-122.946;2022-12-07T12:31:16;101629.95;;;15.50;54.33
55460;BME280;41326;45.302;-122.946;2022-12-07T12:33:44;101630.58;;;15.50;54.35
55460;BME280;41326;45.302;-122.946;2022-12-07T12:36:20;101623.37;;;15.51;54.26
55460;BME280;41326;45.302;-122.946;2022-12-07T12:38:49;101623.02;;;15.51;54.21
55460;BME280;41326;45.302;-122.946;2022-12-07T12:43:49;101623.07;;;15.51;54.13
55460;BME280;41326;45.302;-122.946;2022-12-07T12:48:45;101618.51;;;15.42;54.65
55460;BME280;41326;45.302;-122.946;2022-12-07T12:53:50;101618.10;;;15.43;54.61